Airfield :
LOGIN :

Register | Disclaimer

   EN    FR    IT 

 










Legend :    VFR   Marginal VFR   IFR   Intensive IFR   Very Intensive IFR
Visi :
Ceiling :
>= 8 km
>= 3000ft
5 to 8 km
1000 to 3000 ft
1500m to 5 km
500 to 1000 ft
800 to 1500m
200 to 500 ft
< 800m
< 200 ft
Symbols :   Thunderstorms  Fog  Heavy snow  Heavy precipitations  Wind > 20 kt
SIGMETs :     Misc.  Thunderstorms  Icing  Turbulence  Mountain Waves  Volcanic Ashes







- Airport Elevation : 794 ft


LKCV - Čáslav Air Base

CURRENT METAR :
  • 151500Z 23005KT 9999 FEW041 SCT048 03/M02 Q0999 NOSIG RMK BLU+ BLU

EXPIRED METARs :
  • 151400Z 28009KT 9999 FEW040 05/M01 Q0998 NOSIG RMK BLU+ BLU
  • 151300Z 26017KT 9999 SCT040 06/M02 Q0998 NOSIG RMK BLU+ BLU

TAF TAF LKCV
Valid from the 15 at 12:00 until the 16 at 12:00 UTC


151100Z 1512/1612 25016G26KT 9999 SCT030
BECMG 1513/1515 24008KT
BECMG 1518/1520 VRB02KT BKN030
PROB40
TEMPO 1603/1611 6000 -SN BKN020
BECMG 1607/1609 30008KT
No reported NOTAMs for that airfield.



MET'MAP, your aeronautical weather chart ! - Copyright ORBIFLY December 2007 - Disclaimer

ORBIFLY MET'MAP TEAM :

Programming & Development : Alexandra Zaïnal
Concept & Development : Baudouin d'Aumeries
Co-Development & Prog : Marc-Olivier Méhu
Technical & hardware support : Manuel Goepfert

Contact : metmap@orbifly.com




SOURCES & CREDITS :

   NOAA